createdAt,value
2018-06-01T19:19:47.814Z,21.28
2018-06-01T19:22:18.972Z,21.37
2018-06-01T19:24:50.468Z,21.40
2018-06-01T19:27:21.665Z,21.26
2018-06-01T19:29:58.858Z,21.13
2018-06-01T19:32:30.102Z,20.82
2018-06-01T19:35:01.331Z,20.01
2018-06-01T19:37:32.750Z,20.72
2018-06-01T19:40:04.294Z,20.75
2018-06-01T19:42:35.588Z,20.35
2018-06-01T19:45:07.741Z,20.07
2018-06-01T19:47:39.350Z,20.29
2018-06-01T19:50:12.149Z,20.33
2018-06-01T19:52:43.508Z,20.77
2018-06-01T19:55:15.232Z,20.75
2018-06-01T19:57:46.916Z,20.77
2018-06-01T20:00:18.675Z,20.71
2018-06-01T20:02:50.243Z,20.70
2018-06-01T20:05:22.000Z,20.63
2018-06-01T20:07:53.168Z,20.54
2018-06-01T20:10:38.668Z,20.59
2018-06-01T20:13:09.747Z,20.40
2018-06-01T20:15:41.300Z,20.49
2018-06-01T20:18:13.166Z,20.45
2018-06-01T20:20:44.472Z,20.06
2018-06-01T20:23:15.874Z,19.86
2018-06-01T20:26:00.275Z,20.36
2018-06-01T20:28:31.622Z,20.32
2018-06-01T20:31:02.821Z,19.83
2018-06-01T20:33:34.105Z,19.31
2018-06-01T20:36:05.434Z,19.72
2018-06-01T20:41:31.563Z,19.80
2018-06-01T20:44:02.666Z,19.23
2018-06-01T20:49:32.821Z,18.85
2018-06-01T20:52:03.876Z,18.91
2018-06-01T20:54:39.008Z,19.30
2018-06-01T20:57:10.025Z,19.73
2018-06-01T20:59:40.877Z,19.83
2018-06-01T21:02:12.061Z,19.88
2018-06-01T21:04:42.913Z,19.81
2018-06-01T21:07:14.326Z,19.69
2018-06-01T21:09:45.463Z,19.62
2018-06-01T21:12:16.853Z,19.68
2018-06-01T21:14:51.391Z,19.49
2018-06-01T21:17:22.494Z,19.26
2018-06-01T21:19:53.786Z,19.34
2018-06-01T21:22:25.236Z,19.35
2018-06-01T21:24:56.481Z,18.53
2018-06-01T21:27:27.829Z,18.76
2018-06-01T21:29:59.016Z,19.01
2018-06-01T21:32:30.296Z,19.18
2018-06-01T21:35:01.477Z,19.26
2018-06-01T21:37:32.933Z,19.35
2018-06-01T21:40:04.200Z,19.37
2018-06-01T21:42:35.401Z,19.32
2018-06-01T21:45:06.228Z,19.19
2018-06-01T21:47:37.412Z,19.09
2018-06-01T21:50:08.241Z,18.99
2018-06-01T21:52:39.365Z,19.22
2018-06-01T21:55:10.522Z,19.22
2018-06-01T21:57:41.764Z,19.21
2018-06-01T22:00:28.824Z,19.10
2018-06-01T22:03:00.021Z,18.99
2018-06-01T22:05:31.148Z,19.02
2018-06-01T22:08:24.530Z,19.04
2018-06-01T22:10:55.656Z,19.03
2018-06-01T22:13:27.136Z,18.98
2018-06-01T22:16:05.521Z,18.65
2018-06-01T22:18:36.582Z,18.51
2018-06-01T22:21:07.865Z,18.41
2018-06-01T22:23:42.816Z,18.76
2018-06-01T22:26:14.041Z,18.65
2018-06-01T22:28:46.464Z,18.76
2018-06-01T22:31:18.860Z,18.45
2018-06-01T22:33:50.611Z,18.49
2018-06-01T22:36:22.337Z,17.79
2018-06-01T22:38:53.459Z,17.93
2018-06-01T22:41:24.555Z,18.17
2018-06-01T22:43:55.925Z,18.41
2018-06-01T22:46:27.151Z,18.36
2018-06-01T22:48:58.336Z,18.25
2018-06-01T22:51:29.685Z,17.89
2018-06-01T22:54:01.036Z,17.53
2018-06-01T22:56:38.359Z,18.10
2018-06-01T22:59:09.413Z,18.25
2018-06-01T23:01:40.500Z,18.23
2018-06-01T23:04:13.089Z,18.25
2018-06-01T23:06:44.605Z,17.11
2018-06-01T23:09:15.784Z,16.69
2018-06-01T23:11:47.082Z,16.73
2018-06-01T23:14:18.225Z,16.74
2018-06-01T23:16:49.309Z,16.82
2018-06-01T23:19:20.581Z,16.77
2018-06-01T23:21:51.666Z,16.84
2018-06-01T23:24:22.812Z,16.99
2018-06-01T23:27:00.088Z,16.83
2018-06-01T23:29:31.030Z,16.95
2018-06-01T23:32:01.928Z,17.34
2018-06-01T23:34:46.732Z,17.37
2018-06-01T23:37:18.009Z,17.25
2018-06-01T23:39:49.244Z,17.12
2018-06-01T23:42:20.408Z,17.02
2018-06-01T23:44:51.776Z,17.09
2018-06-01T23:47:22.841Z,17.20
2018-06-01T23:49:54.049Z,17.23
2018-06-01T23:52:25.160Z,17.22
2018-06-01T23:54:56.545Z,17.36
2018-06-01T23:57:27.671Z,17.26
2018-06-01T23:59:58.902Z,17.31
